Floral, Canada
Current Conditions -  °F | °C
As of 2:40 PM on Saturday 20 Dec 2014 (Local Time) from CYXE Reporting Station
Light Snow Light Snow  
Wind Chill: -10°   Ceiling: 1700
Heat Index: -6°   Visibility: 5mi
Dew Point: -7°   Wind: 6mph
Humidity: 93%   Direction: 310°NW
Pressure: 29.7"   Gusts: NA
Location:  52.07°N, 106.47°W
Report Text: CYXE 202040Z 31005KT 5SM -SN BR SCT007 BKN017 M06/M07 A2970 RMK SF4SC3 SLP093
Loading
Personal Weather Stations






























Interactive Weather Map New forecast layout! Learn more

10-Day Weather Forecast

Advertisements
Track Severe Weather on mobile